Airport ICAO


18:42 UTC

9°C

Overcast


An affordable passengers' Moving Map for your aircraft. Made for the iPad and the iPhone
More information here

LFAT Paris Plage


Le Tourquet FRANCE   VFR


METAR LFAT 231830Z AUTO 05008KT 9999 OVC040/// 09/05 Q1031 0h12min

TAF LFAT 231400Z 2315/2324 33007KT 4000 BR BKN018 BECMG 2315/2318 05010KT 9999 NSW 4h42min





NOTAMS

OPEN